Time;durP1;ratioP1;P1;durP2;ratioP2;P2;SDS_P1;SDS_P2;PMS_P1;PMS_P2;Temp;Humidity;BMP_temperature;BMP_pressure;BME280_temperature;BME280_humidity;BME280_pressure;Samples;Min_cycle;Max_cycle;Signal;HPM_P1;HPM_P2
2023/07/26 00:00:51;;;;;;;9.48;1.83;;;;;;;17.24;86.60;99829.16;5095259;28;20034;-75
2023/07/26 00:03:17;;;;;;;10.55;1.50;;;;;;;17.45;86.31;99856.41;5111799;28;20592;-75
2023/07/26 00:05:42;;;;;;;11.15;1.38;;;;;;;17.43;86.76;99862.13;5095653;28;20043;-75
2023/07/26 00:08:07;;;;;;;10.60;1.83;;;;;;;17.43;86.53;99864.03;5113610;28;20069;-75
2023/07/26 00:10:33;;;;;;;12.23;1.92;;;;;;;17.44;86.74;99862.94;5094965;28;20393;-75
2023/07/26 00:12:58;;;;;;;9.32;1.67;;;;;;;17.33;87.39;99846.59;5113288;28;20462;-75
2023/07/26 00:15:24;;;;;;;10.63;1.63;;;;;;;17.37;88.08;99865.94;5094558;28;20035;-75
2023/07/26 00:17:49;;;;;;;7.78;1.52;;;;;;;17.26;88.13;99856.91;5111807;28;20027;-75
2023/07/26 00:20:15;;;;;;;8.85;2.05;;;;;;;17.38;87.34;99865.69;5111854;28;20087;-76
2023/07/26 00:22:40;;;;;;;10.77;1.30;;;;;;;17.38;87.37;99871.13;5094722;28;20028;-75
2023/07/26 00:25:06;;;;;;;6.25;1.13;;;;;;;17.50;86.56;99872.78;5112219;28;20046;-75
2023/07/26 00:27:33;;;;;;;9.82;1.60;;;;;;;17.47;86.42;99873.31;5112764;28;20028;-75
2023/07/26 00:29:59;;;;;;;9.80;1.40;;;;;;;17.44;86.27;99873.84;5097038;28;20485;-75
2023/07/26 00:32:24;;;;;;;8.55;1.85;;;;;;;17.33;86.77;99868.34;5111648;28;20039;-75
2023/07/26 00:34:50;;;;;;;8.18;1.63;;;;;;;17.34;86.60;99875.44;5115568;28;20024;-75
2023/07/26 00:37:15;;;;;;;14.23;1.70;;;;;;;17.27;87.37;99869.41;5097633;28;20038;-75
2023/07/26 00:39:41;;;;;;;6.82;1.60;;;;;;;17.27;87.14;99860.47;5113788;28;20027;-75
2023/07/26 00:42:06;;;;;;;6.03;1.30;;;;;;;17.32;86.88;99855.84;5096346;28;20493;-75
2023/07/26 00:44:32;;;;;;;10.70;2.00;;;;;;;17.16;87.00;99848.72;5095664;28;20092;-75
2023/07/26 00:46:57;;;;;;;6.97;1.77;;;;;;;17.33;86.80;99864.81;5112378;28;20123;-75
2023/07/26 00:49:23;;;;;;;7.75;1.70;;;;;;;17.19;86.68;99845.47;5111636;28;20058;-75
2023/07/26 00:51:49;;;;;;;10.68;1.60;;;;;;;17.26;86.92;99842.50;5112066;28;20027;-75
2023/07/26 00:54:18;;;;;;;4.82;1.10;;;;;;;17.26;87.67;99856.91;5113551;28;20081;-75
2023/07/26 00:56:44;;;;;;;10.00;1.80;;;;;;;17.32;88.21;99863.19;5112713;28;20028;-75
2023/07/26 00:59:09;;;;;;;8.07;1.48;;;;;;;17.33;88.24;99871.09;5111224;28;20034;-75
2023/07/26 01:01:34;;;;;;;5.70;1.40;;;;;;;17.32;88.21;99876.81;5094638;28;20058;-75
2023/07/26 01:04:00;;;;;;;9.05;1.70;;;;;;;17.21;88.08;99854.16;5094958;28;20046;-75
2023/07/26 01:06:40;;;;;;;8.48;1.30;;;;;;;17.28;87.82;99875.69;5112330;28;20632;-75
2023/07/26 01:09:24;;;;;;;7.03;1.45;;;;;;;17.23;87.62;99879.19;5112067;28;20023;-75
2023/07/26 01:11:57;;;;;;;10.13;1.65;;;;;;;17.22;87.45;99876.72;5113013;28;20088;-75
2023/07/26 01:14:35;;;;;;;8.20;1.58;;;;;;;17.10;87.90;99875.06;5113131;28;20056;-75
2023/07/26 01:17:01;;;;;;;10.43;1.70;;;;;;;17.09;88.22;99870.72;5111206;28;20059;-75
2023/07/26 01:19:26;;;;;;;6.05;1.45;;;;;;;17.13;87.62;99868.28;5094512;28;20019;-75
2023/07/26 01:21:52;;;;;;;7.90;1.40;;;;;;;17.17;87.78;99872.09;5111059;28;20066;-75
2023/07/26 01:24:17;;;;;;;10.00;1.45;;;;;;;17.10;87.91;99858.75;5110843;28;20023;-75
2023/07/26 01:26:43;;;;;;;8.40;1.38;;;;;;;17.29;87.98;99885.50;5093577;28;20028;-75
2023/07/26 01:29:08;;;;;;;10.40;1.60;;;;;;;17.28;88.18;99887.38;5111958;28;20031;-75
2023/07/26 01:31:35;;;;;;;11.32;1.98;;;;;;;17.28;88.25;99891.97;5093619;28;20118;-75
2023/07/26 01:34:01;;;;;;;8.23;1.40;;;;;;;17.23;88.14;99887.34;5111166;28;20055;-75
2023/07/26 01:36:32;;;;;;;10.95;1.83;;;;;;;17.13;88.50;99879.16;5110462;28;20497;-75
2023/07/26 01:38:58;;;;;;;12.00;1.70;;;;;;;17.08;88.31;99865.53;5127388;27;20122;-75
2023/07/26 01:41:25;;;;;;;11.48;1.60;;;;;;;17.08;88.17;99868.25;5110876;28;20043;-75
2023/07/26 01:43:50;;;;;;;7.40;1.35;;;;;;;17.07;89.13;99880.22;5093700;28;20042;-75
2023/07/26 01:46:16;;;;;;;7.72;1.77;;;;;;;17.13;88.91;99885.41;5092723;28;20401;-75
2023/07/26 01:48:41;;;;;;;7.55;1.60;;;;;;;17.07;89.73;99891.91;5109280;28;20095;-76
2023/07/26 01:51:07;;;;;;;9.18;1.88;;;;;;;17.05;90.23;99882.38;5111624;28;20098;-75
2023/07/26 01:53:33;;;;;;;5.68;1.65;;;;;;;17.08;89.83;99882.66;5110789;28;20187;-75
2023/07/26 01:56:02;;;;;;;11.88;2.15;;;;;;;17.00;90.69;99877.75;5109800;28;20023;-75
2023/07/26 01:58:28;;;;;;;10.88;1.90;;;;;;;17.02;90.90;99883.75;5111556;28;20309;-75
2023/07/26 02:00:54;;;;;;;17.27;1.85;;;;;;;16.95;91.56;99885.03;5092908;28;20058;-75
2023/07/26 02:03:19;;;;;;;10.13;1.80;;;;;;;16.91;91.52;99882.84;5111332;28;20118;-75
2023/07/26 02:05:45;;;;;;;10.05;1.77;;;;;;;16.79;91.46;99865.13;5109919;28;20028;-75
2023/07/26 02:08:11;;;;;;;11.55;1.80;;;;;;;16.76;91.42;99869.19;5109935;28;20800;-75
2023/07/26 02:10:38;;;;;;;9.35;1.80;;;;;;;16.82;91.88;99883.59;5110131;28;20229;-75
2023/07/26 02:13:04;;;;;;;11.98;1.67;;;;;;;16.75;91.56;99883.84;5093269;28;20028;-75
2023/07/26 02:15:31;;;;;;;7.38;1.52;;;;;;;16.73;91.25;99877.84;5111043;28;20050;-75
2023/07/26 02:17:56;;;;;;;13.02;1.80;;;;;;;16.75;91.05;99889.25;5109889;28;20027;-75
2023/07/26 02:20:22;;;;;;;6.75;1.75;;;;;;;16.81;90.84;99882.78;5094339;28;20081;-75
2023/07/26 02:22:47;;;;;;;6.28;1.92;;;;;;;16.76;90.85;99880.06;5114315;28;20055;-75
2023/07/26 02:25:13;;;;;;;7.75;1.60;;;;;;;16.79;90.61;99884.97;5115926;28;20032;-75
2023/07/26 02:27:39;;;;;;;7.70;1.75;;;;;;;16.79;90.94;99887.69;5114619;28;20136;-75
2023/07/26 02:30:05;;;;;;;8.85;1.88;;;;;;;16.79;90.86;99887.69;5117006;28;20020;-75
2023/07/26 02:32:30;;;;;;;6.55;1.50;;;;;;;16.78;90.80;99887.94;5114744;28;20028;-75
2023/07/26 02:34:56;;;;;;;10.57;1.98;;;;;;;16.80;90.44;99888.50;5115725;28;20056;-75
2023/07/26 02:37:21;;;;;;;8.55;1.88;;;;;;;16.63;90.76;99872.34;5114913;28;20062;-75
2023/07/26 02:39:48;;;;;;;10.98;2.00;;;;;;;16.79;90.88;99887.69;5114180;28;20401;-75
2023/07/26 02:42:14;;;;;;;11.95;2.15;;;;;;;16.78;90.63;99891.47;5113550;28;20024;-75
2023/07/26 02:44:40;;;;;;;10.43;1.83;;;;;;;16.71;91.50;99887.31;5113774;28;20034;-75
2023/07/26 02:47:05;;;;;;;8.18;1.92;;;;;;;16.70;91.64;99891.94;5113683;28;20386;-75
2023/07/26 02:49:32;;;;;;;9.85;1.80;;;;;;;16.68;91.97;99891.38;5113279;28;20074;-75
2023/07/26 02:51:57;;;;;;;12.02;1.90;;;;;;;16.70;92.00;99891.94;5113502;28;20032;-75
2023/07/26 02:54:23;;;;;;;10.00;1.90;;;;;;;16.72;91.65;99892.50;5113092;28;20035;-75
2023/07/26 02:56:49;;;;;;;12.52;2.10;;;;;;;16.70;91.70;99891.13;5113033;28;20413;-75
2023/07/26 02:59:15;;;;;;;10.07;1.80;;;;;;;16.64;91.98;99884.81;5096145;28;20023;-75
2023/07/26 03:01:40;;;;;;;9.40;1.88;;;;;;;16.58;92.13;99881.25;5113291;28;20023;-75
2023/07/26 03:04:06;;;;;;;12.32;2.33;;;;;;;16.50;92.26;99865.47;5113032;28;20564;-75
2023/07/26 03:06:31;;;;;;;9.63;2.05;;;;;;;16.61;92.35;99886.16;5095933;28;20039;-75
2023/07/26 03:08:57;;;;;;;10.15;2.20;;;;;;;16.65;92.35;99892.72;5114023;28;20039;-75
2023/07/26 03:11:23;;;;;;;11.27;2.63;;;;;;;16.66;92.83;99896.25;5113072;28;20474;-76
2023/07/26 03:13:48;;;;;;;13.75;2.70;;;;;;;16.67;92.70;99887.84;5115359;28;20051;-75
2023/07/26 03:16:17;;;;;;;13.90;1.90;;;;;;;16.50;92.19;99854.59;5112791;28;20055;-75
2023/07/26 03:18:43;;;;;;;14.77;2.60;;;;;;;16.72;92.76;99892.50;5114220;28;20045;-75
2023/07/26 03:21:08;;;;;;;8.77;1.75;;;;;;;16.68;92.68;99877.78;5112616;28;20023;-75
2023/07/26 03:23:35;;;;;;;9.55;1.98;;;;;;;16.81;92.74;99904.53;5114362;27;20031;-75
2023/07/26 03:26:03;;;;;;;15.68;2.45;;;;;;;16.88;92.20;99902.38;5112502;28;20081;-75
2023/07/26 03:28:29;;;;;;;16.88;2.38;;;;;;;16.71;92.04;99871.84;5112525;28;20046;-75
2023/07/26 03:30:54;;;;;;;18.35;2.90;;;;;;;16.84;92.01;99893.13;5112873;28;20085;-75
2023/07/26 03:33:19;;;;;;;12.45;2.55;;;;;;;16.86;91.95;99892.88;5113606;28;20504;-75
2023/07/26 03:35:45;;;;;;;12.52;2.45;;;;;;;16.77;91.88;99878.97;5112533;28;20032;-75
2023/07/26 03:38:11;;;;;;;10.73;2.30;;;;;;;17.00;91.18;99902.19;5115857;28;20478;-75
2023/07/26 03:40:36;;;;;;;14.45;2.83;;;;;;;17.05;91.10;99904.97;5112479;28;20028;-75
2023/07/26 03:43:01;;;;;;;11.13;2.08;;;;;;;17.07;90.87;99891.91;5095856;28;20440;-75
2023/07/26 03:45:27;;;;;;;12.13;2.40;;;;;;;17.08;90.58;99881.84;5095281;28;20439;-74
2023/07/26 03:47:53;;;;;;;14.23;2.65;;;;;;;16.80;90.39;99834.97;5095490;28;20121;-75
2023/07/26 03:50:20;;;;;;;12.07;2.20;;;;;;;17.24;89.67;99885.44;5095164;28;20513;-75
2023/07/26 03:52:45;;;;;;;10.55;2.10;;;;;;;17.52;88.24;99895.91;5113730;28;20047;-75
2023/07/26 03:55:10;;;;;;;11.63;2.42;;;;;;;17.30;88.59;99878.97;5096668;28;20027;-75
2023/07/26 03:57:36;;;;;;;12.38;2.00;;;;;;;17.50;87.88;99902.69;5096804;28;20028;-75
2023/07/26 04:00:01;;;;;;;7.25;2.20;;;;;;;17.53;87.78;99904.88;5113352;28;20031;-75
2023/07/26 04:02:27;;;;;;;15.32;2.60;;;;;;;17.81;86.25;99900.88;5112314;28;20418;-75
2023/07/26 04:04:52;;;;;;;13.35;2.50;;;;;;;18.45;82.73;99902.31;5112469;28;20406;-75
2023/07/26 04:07:18;;;;;;;13.77;2.35;;;;;;;19.05;78.48;99892.44;5094636;28;20035;-75
2023/07/26 04:09:43;;;;;;;9.60;2.30;;;;;;;19.74;74.74;99893.50;5112544;28;20100;-75
2023/07/26 04:12:09;;;;;;;14.35;2.88;;;;;;;20.12;72.36;99896.53;5095190;28;20035;-75
2023/07/26 04:14:34;;;;;;;9.20;2.15;;;;;;;20.41;70.70;99894.66;5112138;28;20039;-75
2023/07/26 04:17:00;;;;;;;11.48;2.22;;;;;;;20.60;69.54;99900.25;5095054;28;20032;-75
2023/07/26 04:19:25;;;;;;;8.98;2.13;;;;;;;20.23;70.98;99883.59;5111375;28;20482;-75
2023/07/26 04:21:51;;;;;;;10.05;2.17;;;;;;;19.69;73.08;99880.69;5095230;28;20085;-75
2023/07/26 04:24:16;;;;;;;9.65;2.10;;;;;;;19.44;75.03;99899.91;5094706;28;20038;-75
2023/07/26 04:26:42;;;;;;;7.97;1.85;;;;;;;19.85;73.23;99897.00;5094946;28;20028;-75
2023/07/26 04:29:07;;;;;;;14.70;2.97;;;;;;;19.46;74.45;99892.25;5112467;28;20051;-75
2023/07/26 04:31:33;;;;;;;12.10;2.08;;;;;;;19.01;77.10;99888.63;5095475;28;20049;-75
2023/07/26 04:33:58;;;;;;;6.78;1.77;;;;;;;19.71;74.73;99894.06;5112752;28;20050;-75
2023/07/26 04:36:23;;;;;;;8.70;1.73;;;;;;;20.69;69.77;99899.63;5095555;28;20082;-75
2023/07/26 04:38:49;;;;;;;6.57;1.88;;;;;;;21.30;67.44;99916.19;5096586;28;20063;-75
2023/07/26 04:41:14;;;;;;;9.68;1.92;;;;;;;20.86;68.19;99914.50;5113527;28;20062;-75
2023/07/26 04:43:40;;;;;;;15.40;2.20;;;;;;;19.92;71.78;99897.47;5112150;28;20031;-75
2023/07/26 04:46:05;;;;;;;12.07;1.83;;;;;;;20.59;69.99;99912.28;5095155;28;20115;-75
2023/07/26 04:48:31;;;;;;;9.13;1.88;;;;;;;21.47;65.37;99914.91;5094718;28;20559;-75
2023/07/26 04:50:56;;;;;;;14.02;2.47;;;;;;;21.70;64.22;99919.53;5113237;28;20028;-75
2023/07/26 04:53:22;;;;;;;7.97;1.90;;;;;;;20.56;69.31;99923.81;5112062;28;20027;-75
2023/07/26 04:55:51;;;;;;;10.23;1.83;;;;;;;20.02;72.78;99922.00;5112833;28;20027;-75
2023/07/26 04:58:18;;;;;;;7.00;1.77;;;;;;;19.67;73.92;99903.94;5076279;28;20028;-75
2023/07/26 05:00:44;;;;;;;11.43;1.73;;;;;;;21.11;68.15;99918.84;5091960;28;20110;-75
2023/07/26 05:03:10;;;;;;;15.10;1.98;;;;;;;21.75;64.63;99929.59;5091598;28;20105;-74
2023/07/26 05:05:37;;;;;;;11.05;1.70;;;;;;;22.25;62.35;99925.34;5090986;28;20051;-75
2023/07/26 05:08:03;;;;;;;10.18;1.63;;;;;;;22.72;60.67;99919.91;5091864;28;20085;-75
2023/07/26 05:10:29;;;;;;;9.75;2.00;;;;;;;23.12;59.70;99920.28;5090734;28;20027;-75
2023/07/26 05:12:56;;;;;;;11.98;2.08;;;;;;;22.92;59.74;99927.75;5090517;28;20051;-75
2023/07/26 05:15:22;;;;;;;10.70;2.17;;;;;;;22.48;60.28;99931.81;5091683;28;20032;-75
2023/07/26 05:17:47;;;;;;;11.98;2.05;;;;;;;22.34;60.64;99924.66;5090584;28;20034;-75
2023/07/26 05:20:13;;;;;;;10.15;1.77;;;;;;;22.11;61.71;99921.69;5090273;28;20062;-75
2023/07/26 05:22:38;;;;;;;9.70;1.90;;;;;;;22.56;60.89;99921.28;5090354;28;20032;-75
2023/07/26 05:25:04;;;;;;;12.50;2.15;;;;;;;22.59;60.56;99916.00;5090684;28;20501;-75
2023/07/26 05:27:30;;;;;;;11.00;1.65;;;;;;;22.63;60.02;99911.53;5106916;28;20039;-75
2023/07/26 05:29:57;;;;;;;9.63;1.77;;;;;;;22.29;60.42;99922.81;5073226;28;20020;-76
2023/07/26 05:32:23;;;;;;;10.00;1.85;;;;;;;22.50;60.53;99929.56;5073956;28;20028;-75
2023/07/26 05:34:49;;;;;;;8.35;1.60;;;;;;;22.19;61.30;99917.50;5090846;28;20035;-76
2023/07/26 05:37:15;;;;;;;12.18;2.00;;;;;;;22.27;60.65;99925.03;5092039;28;20038;-75
2023/07/26 05:39:40;;;;;;;7.65;1.40;;;;;;;22.23;60.44;99926.75;5090723;28;20107;-76
2023/07/26 05:42:06;;;;;;;5.78;1.65;;;;;;;22.23;60.69;99919.34;5074457;28;20050;-75
2023/07/26 05:44:31;;;;;;;7.95;1.58;;;;;;;22.33;60.35;99929.31;5073875;28;20127;-77
2023/07/26 05:46:58;;;;;;;12.40;1.67;;;;;;;21.75;62.50;99929.59;5092294;28;20495;-75
2023/07/26 05:49:24;;;;;;;8.98;1.40;;;;;;;21.01;64.43;99910.78;5090638;28;20054;-75
2023/07/26 05:51:49;;;;;;;8.30;1.50;;;;;;;20.64;66.00;99931.38;5090616;28;20103;-74
2023/07/26 05:54:14;;;;;;;9.73;1.55;;;;;;;20.26;67.35;99927.53;5089469;28;20028;-75
2023/07/26 05:56:40;;;;;;;8.27;1.65;;;;;;;19.89;69.05;99934.34;5073227;28;20032;-75
2023/07/26 05:59:05;;;;;;;8.95;1.38;;;;;;;19.67;70.14;99932.03;5091353;28;20032;-75
2023/07/26 06:01:31;;;;;;;8.30;1.25;;;;;;;19.51;71.61;99929.63;5091798;28;20113;-75
2023/07/26 06:03:56;;;;;;;13.02;1.77;;;;;;;19.53;71.41;99930.97;5090389;28;20023;-75
2023/07/26 06:06:21;;;;;;;9.95;1.48;;;;;;;19.54;71.50;99927.16;5091630;28;20070;-75
2023/07/26 06:08:47;;;;;;;6.25;1.60;;;;;;;19.31;72.31;99906.78;5073230;28;20081;-75
2023/07/26 06:11:12;;;;;;;7.65;2.03;;;;;;;19.69;71.56;99934.47;5073234;28;20020;-75
2023/07/26 06:13:38;;;;;;;9.95;1.40;;;;;;;19.81;71.62;99934.97;5090548;28;20118;-75
2023/07/26 06:16:03;;;;;;;5.80;1.20;;;;;;;19.84;70.70;99931.66;5090246;28;20032;-75
2023/07/26 06:18:29;;;;;;;8.88;1.50;;;;;;;20.13;69.73;99920.84;5072031;28;20082;-75
2023/07/26 06:20:54;;;;;;;9.20;1.85;;;;;;;20.29;69.25;99910.59;5071936;28;20581;-75
2023/07/26 06:23:20;;;;;;;9.38;1.85;;;;;;;20.31;69.26;99911.13;5088976;28;20152;-75
2023/07/26 06:25:45;;;;;;;9.35;1.60;;;;;;;20.22;69.18;99896.44;5073306;28;20085;-75
2023/07/26 06:28:12;;;;;;;6.35;1.10;;;;;;;20.47;69.13;99950.09;5089658;28;20055;-75
2023/07/26 06:30:38;;;;;;;7.43;1.33;;;;;;;20.16;69.29;99938.56;5090899;28;20028;-75
2023/07/26 06:33:04;;;;;;;8.20;1.48;;;;;;;20.15;69.68;99943.19;5089798;28;20028;-75
2023/07/26 06:35:29;;;;;;;8.25;1.40;;;;;;;20.40;68.55;99955.06;5071884;28;20313;-76
2023/07/26 06:37:56;;;;;;;11.48;1.38;;;;;;;20.04;68.77;99960.75;5070951;28;20028;-76
2023/07/26 06:40:21;;;;;;;5.53;1.50;;;;;;;20.02;69.09;99959.41;5087522;28;20078;-76
2023/07/26 06:42:46;;;;;;;5.10;1.00;;;;;;;19.95;69.68;99962.44;5088984;28;20036;-75
2023/07/26 06:45:12;;;;;;;5.22;1.17;;;;;;;19.85;70.05;99962.50;5070816;28;20032;-73
2023/07/26 06:47:37;;;;;;;7.22;1.13;;;;;;;20.10;69.45;99956.09;5088762;28;20089;-73
2023/07/26 06:50:03;;;;;;;6.05;1.38;;;;;;;20.47;69.10;99963.75;5093175;28;20256;-73
2023/07/26 06:52:30;;;;;;;6.07;1.30;;;;;;;20.75;68.24;99962.16;5090474;28;20486;-74
2023/07/26 06:54:55;;;;;;;8.25;2.13;;;;;;;20.97;67.81;99972.63;5089623;28;20398;-73
2023/07/26 06:57:21;;;;;;;8.75;1.38;;;;;;;20.89;67.35;99959.56;5088791;28;20020;-74
2023/07/26 06:59:46;;;;;;;6.50;1.33;;;;;;;20.80;67.58;99970.34;5072779;28;20040;-74
2023/07/26 07:02:12;;;;;;;9.68;1.70;;;;;;;20.48;67.88;99961.81;5089755;28;20048;-74
2023/07/26 07:04:37;;;;;;;5.57;1.30;;;;;;;20.64;67.83;99969.63;5072985;28;20395;-74
2023/07/26 07:07:03;;;;;;;6.15;1.80;;;;;;;20.62;67.25;99969.09;5092405;28;20081;-74
2023/07/26 07:09:28;;;;;;;10.38;1.52;;;;;;;20.55;67.80;99971.34;5096639;28;20047;-74
2023/07/26 07:11:54;;;;;;;6.25;1.40;;;;;;;20.59;67.08;99957.94;5081902;28;20032;-74
2023/07/26 07:14:20;;;;;;;6.45;1.42;;;;;;;20.69;66.95;99965.22;5094556;28;20372;-74
2023/07/26 07:16:45;;;;;;;6.85;1.33;;;;;;;20.84;66.84;99971.38;5076826;28;20032;-74
2023/07/26 07:19:11;;;;;;;6.65;1.45;;;;;;;20.69;66.89;99962.50;5093589;28;20028;-73
2023/07/26 07:21:36;;;;;;;4.13;1.08;;;;;;;20.67;65.61;99959.25;5076021;28;20028;-73
2023/07/26 07:24:02;;;;;;;8.88;1.42;;;;;;;20.76;66.46;99968.44;5093201;28;20039;-73
2023/07/26 07:26:29;;;;;;;6.55;1.23;;;;;;;20.87;66.52;99964.53;5093133;28;20421;-73
2023/07/26 07:28:55;;;;;;;9.52;1.40;;;;;;;21.04;65.79;99956.69;5093101;28;20043;-72
2023/07/26 07:31:20;;;;;;;7.43;1.20;;;;;;;20.81;65.55;99961.00;5076313;28;20024;-72
2023/07/26 07:33:46;;;;;;;5.80;1.30;;;;;;;20.71;65.95;99969.31;5093053;28;20051;-72
2023/07/26 07:36:15;;;;;;;8.13;1.95;;;;;;;20.89;65.62;99965.03;5076325;28;20043;-73
2023/07/26 07:38:40;;;;;;;8.43;1.30;;;;;;;21.18;65.92;99969.69;5077587;28;20508;-73
2023/07/26 07:41:06;;;;;;;5.47;1.20;;;;;;;21.46;64.79;99968.84;5092498;28;20107;-73
2023/07/26 07:43:31;;;;;;;4.28;1.00;;;;;;;21.53;64.02;99971.25;5092646;28;20043;-73
2023/07/26 07:45:57;;;;;;;6.28;1.17;;;;;;;21.45;63.68;99969.94;5075875;28;20040;-72
2023/07/26 07:48:22;;;;;;;4.32;1.10;;;;;;;21.38;63.66;99961.28;5094121;28;20490;-73
2023/07/26 07:50:55;;;;;;;9.18;1.27;;;;;;;21.05;64.40;99961.03;5092967;28;20035;-73
2023/07/26 07:53:22;;;;;;;3.67;1.00;;;;;;;20.99;64.30;99977.78;5093283;28;20558;-73
2023/07/26 07:55:47;;;;;;;3.78;0.93;;;;;;;20.60;65.00;99963.13;5100594;28;20031;-73
2023/07/26 07:58:13;;;;;;;8.77;1.70;;;;;;;20.99;64.70;99978.63;5093611;28;20394;-73
2023/07/26 08:00:38;;;;;;;7.07;1.40;;;;;;;21.03;64.70;99985.16;5092296;28;20470;-73
2023/07/26 08:03:05;;;;;;;9.07;1.35;;;;;;;20.83;65.45;99968.94;5092587;28;20058;-72
2023/07/26 08:05:32;;;;;;;7.82;1.30;;;;;;;21.05;64.54;99990.31;5093509;28;20057;-73
2023/07/26 08:07:57;;;;;;;3.35;1.00;;;;;;;20.99;64.41;99991.47;5092464;28;20036;-73
2023/07/26 08:10:23;;;;;;;5.40;1.10;;;;;;;21.05;63.58;99995.78;5093304;28;20043;-73
2023/07/26 08:12:48;;;;;;;4.25;1.10;;;;;;;20.91;64.01;99998.38;5092194;28;20090;-72
2023/07/26 08:15:14;;;;;;;5.90;1.10;;;;;;;20.67;64.71;99992.88;5075181;28;20044;-73
2023/07/26 08:17:40;;;;;;;7.82;1.30;;;;;;;20.70;65.24;99983.28;5092604;28;20035;-73
2023/07/26 08:20:06;;;;;;;5.07;1.20;;;;;;;20.96;64.48;99984.69;5074884;28;20028;-72
2023/07/26 08:22:31;;;;;;;5.53;1.10;;;;;;;21.39;64.16;100003.13;5075149;28;20046;-72
2023/07/26 08:24:57;;;;;;;7.13;1.20;;;;;;;21.01;64.03;100003.75;5075095;28;20036;-72
2023/07/26 08:27:23;;;;;;;4.85;1.15;;;;;;;20.78;64.02;100005.34;5074908;28;20039;-73
2023/07/26 08:29:48;;;;;;;5.55;1.38;;;;;;;20.54;64.15;100007.19;5091949;28;20449;-72
2023/07/26 08:32:14;;;;;;;6.03;1.10;;;;;;;20.57;65.22;100004.69;5091843;28;20460;-72
2023/07/26 08:34:39;;;;;;;5.07;1.50;;;;;;;20.90;64.44;100015.09;5091830;28;20059;-72
2023/07/26 08:37:05;;;;;;;8.32;1.33;;;;;;;21.25;63.83;100008.44;5091863;28;20097;-72
2023/07/26 08:39:30;;;;;;;7.18;1.58;;;;;;;21.52;63.19;100010.66;5095807;28;20048;-72
2023/07/26 08:41:56;;;;;;;7.32;1.40;;;;;;;21.86;62.89;99996.03;5078023;28;20061;-73
2023/07/26 08:44:24;;;;;;;6.35;1.40;;;;;;;21.66;62.86;100008.84;5094080;28;20366;-73
2023/07/26 08:46:52;;;;;;;6.53;1.30;;;;;;;21.40;62.35;100002.84;5075086;28;20115;-73
2023/07/26 08:49:18;;;;;;;4.30;1.20;;;;;;;21.55;62.31;99994.44;5091471;28;20093;-73
2023/07/26 08:51:44;;;;;;;5.63;1.58;;;;;;;21.41;61.08;100004.47;5091132;28;20093;-73
2023/07/26 08:54:10;;;;;;;6.45;1.30;;;;;;;21.20;61.70;100016.72;5091622;28;20089;-72
2023/07/26 08:56:35;;;;;;;5.22;1.48;;;;;;;21.41;61.22;100011.88;5092300;28;20032;-72
2023/07/26 08:59:01;;;;;;;5.07;1.00;;;;;;;21.11;61.22;100006.41;5091453;28;20032;-72
2023/07/26 09:01:27;;;;;;;5.18;1.10;;;;;;;21.01;60.87;100013.88;5091086;28;20093;-73
2023/07/26 09:03:53;;;;;;;5.50;1.00;;;;;;;21.01;60.61;99987.34;5092964;28;20114;-73
2023/07/26 09:06:19;;;;;;;6.47;1.27;;;;;;;21.38;60.43;100007.78;5090491;28;20028;-73
2023/07/26 09:08:44;;;;;;;5.32;1.00;;;;;;;21.70;59.92;100003.59;5091287;28;20032;-72
2023/07/26 09:11:26;;;;;;;4.45;1.05;;;;;;;21.58;59.67;100018.50;5090387;28;20024;-72
2023/07/26 09:13:57;;;;;;;8.57;1.10;;;;;;;21.18;60.43;100018.91;5091812;28;20028;-72
2023/07/26 09:16:27;;;;;;;6.32;1.13;;;;;;;21.06;60.54;100009.19;5091609;28;20070;-72
2023/07/26 09:19:02;;;;;;;5.05;1.15;;;;;;;21.58;60.13;100013.03;5091049;28;20051;-72
2023/07/26 09:21:30;;;;;;;4.55;1.40;;;;;;;21.75;60.57;100018.03;5091829;28;20103;-72
2023/07/26 09:23:56;;;;;;;4.20;0.90;;;;;;;21.57;59.92;100019.63;5094270;28;20024;-72
2023/07/26 09:26:42;;;;;;;6.75;1.13;;;;;;;21.38;59.31;100018.75;5098730;28;20514;-73
2023/07/26 09:29:13;;;;;;;5.53;0.95;;;;;;;21.47;59.85;100016.19;5089867;28;20093;-73
2023/07/26 09:31:42;;;;;;;7.57;1.63;;;;;;;21.65;60.97;100023.63;5090151;28;20032;-72
2023/07/26 09:34:11;;;;;;;2.53;1.13;;;;;;;22.01;59.84;100012.22;5074191;28;20114;-72
2023/07/26 09:36:45;;;;;;;10.05;1.58;;;;;;;22.13;59.61;100014.56;5090130;28;20280;-72
2023/07/26 09:39:12;;;;;;;5.35;0.98;;;;;;;21.92;58.14;100008.50;5091627;28;20051;-72
2023/07/26 09:41:38;;;;;;;4.38;1.08;;;;;;;22.09;58.34;100010.78;5091584;28;20043;-73
2023/07/26 09:44:05;;;;;;;5.88;1.10;;;;;;;22.25;58.82;100013.03;5090194;28;20024;-72
2023/07/26 09:46:55;;;;;;;3.38;1.08;;;;;;;22.37;58.39;99998.88;5090014;28;20028;-73
2023/07/26 09:49:22;;;;;;;3.60;1.10;;;;;;;22.51;57.67;100010.69;5090164;28;20076;-73
2023/07/26 09:51:48;;;;;;;6.57;1.20;;;;;;;22.67;57.46;100014.03;5091630;28;20032;-73
2023/07/26 09:54:14;;;;;;;4.68;1.08;;;;;;;22.62;56.80;100016.06;5090543;28;20119;-72
2023/07/26 09:56:43;;;;;;;4.07;1.15;;;;;;;22.27;55.73;99999.84;5091507;28;20111;-73
2023/07/26 09:59:10;;;;;;;2.58;0.73;;;;;;;22.28;55.51;99995.16;5088980;28;20563;-73
2023/07/26 10:01:44;;;;;;;5.15;0.88;;;;;;;22.37;55.32;100006.28;5071841;28;20123;-73
2023/07/26 10:04:39;;;;;;;2.97;1.08;;;;;;;22.48;55.39;100007.75;5088613;28;20040;-73
2023/07/26 10:07:09;;;;;;;2.78;0.95;;;;;;;22.82;55.49;100007.50;5081730;28;20362;-73
2023/07/26 10:09:35;;;;;;;5.75;0.93;;;;;;;22.57;55.31;100011.44;5089233;28;20031;-73
2023/07/26 10:12:02;;;;;;;3.88;0.75;;;;;;;22.33;54.89;100011.53;5090521;28;20028;-73
2023/07/26 10:14:30;;;;;;;5.10;0.90;;;;;;;22.42;54.68;100020.75;5092412;28;20235;-73
2023/07/26 10:16:58;;;;;;;3.67;0.95;;;;;;;22.62;53.61;100013.31;5090690;28;20026;-73
2023/07/26 10:19:28;;;;;;;3.58;0.85;;;;;;;22.28;53.44;100015.19;5090037;28;20043;-73
2023/07/26 10:21:55;;;;;;;2.92;0.80;;;;;;;22.47;53.50;100004.19;5089669;28;20097;-72
2023/07/26 10:24:22;;;;;;;4.15;1.00;;;;;;;22.89;54.01;100007.91;5089799;28;20084;-73
2023/07/26 10:26:49;;;;;;;4.53;0.90;;;;;;;22.96;52.96;99967.22;5072372;28;20032;-73
2023/07/26 10:29:16;;;;;;;2.17;0.80;;;;;;;23.42;52.65;100007.53;5073455;28;20123;-72
2023/07/26 10:31:42;;;;;;;3.80;0.70;;;;;;;23.66;52.09;100010.06;5091385;28;20475;-72
2023/07/26 10:34:09;;;;;;;5.40;0.80;;;;;;;23.67;52.65;100010.88;5073509;28;20039;-72
2023/07/26 10:36:36;;;;;;;5.97;0.93;;;;;;;23.52;52.61;100005.69;5089876;28;20424;-73
2023/07/26 10:39:03;;;;;;;6.00;1.17;;;;;;;23.27;52.78;99996.00;5091249;28;20020;-72
2023/07/26 10:41:29;;;;;;;2.63;1.00;;;;;;;22.90;54.62;100009.53;5092616;28;20039;-73
2023/07/26 10:44:03;;;;;;;5.72;1.17;;;;;;;22.50;56.50;100021.97;5094182;28;20028;-73
2023/07/26 10:46:28;;;;;;;7.85;1.30;;;;;;;22.22;58.40;100007.34;5094908;28;20028;-73
2023/07/26 10:48:54;;;;;;;4.78;1.00;;;;;;;22.12;60.13;100021.97;5076394;28;20105;-73
2023/07/26 10:51:32;;;;;;;5.07;1.08;;;;;;;22.09;61.49;100029.97;5093604;28;20059;-73
2023/07/26 10:53:59;;;;;;;9.05;1.30;;;;;;;21.87;65.55;100031.31;5094792;28;20039;-72
2023/07/26 10:56:26;;;;;;;6.82;1.45;;;;;;;21.53;69.62;100010.38;5094207;28;20325;-72
2023/07/26 10:58:56;;;;;;;4.70;1.25;;;;;;;21.36;71.15;100020.97;5094545;28;20123;-72
2023/07/26 11:01:39;;;;;;;4.55;1.10;;;;;;;21.04;73.59;100037.94;5095179;28;20032;-73
2023/07/26 11:04:19;;;;;;;4.70;1.02;;;;;;;20.80;74.76;100035.94;5093949;28;20024;-72
2023/07/26 11:06:50;;;;;;;6.82;1.20;;;;;;;20.65;76.27;100030.59;5095275;28;20035;-72
2023/07/26 11:09:20;;;;;;;6.97;1.52;;;;;;;20.64;77.20;100028.97;5093521;28;20571;-72
2023/07/26 11:11:59;;;;;;;5.20;0.95;;;;;;;20.51;78.64;100033.16;5093006;28;20039;-71
2023/07/26 11:14:30;;;;;;;11.07;1.65;;;;;;;20.44;79.71;100038.09;5094540;28;20027;-72
2023/07/26 11:16:56;;;;;;;9.93;1.52;;;;;;;20.65;80.51;100039.59;5091817;28;20039;-72
2023/07/26 11:19:21;;;;;;;11.43;1.80;;;;;;;21.20;79.78;100035.88;5110137;28;20028;-73
2023/07/26 11:21:47;;;;;;;6.07;1.20;;;;;;;21.42;79.62;100028.00;5110011;28;20036;-72
2023/07/26 11:24:12;;;;;;;6.05;1.10;;;;;;;21.85;79.77;100041.75;5110386;28;20538;-72
2023/07/26 11:26:46;;;;;;;6.10;1.30;;;;;;;22.08;79.91;100036.53;5094320;28;20040;-73